createdAt,value
2023-01-27T00:00:17.859Z,19.5
2023-01-27T00:05:47.405Z,19.5
2023-01-27T00:11:17.868Z,19.5
2023-01-27T00:16:48.616Z,19.5
2023-01-27T00:22:19.057Z,19.5
2023-01-27T00:27:49.555Z,19.5
2023-01-27T00:33:19.030Z,19.5
2023-01-27T00:38:49.500Z,19.5
2023-01-27T00:44:19.979Z,19.5
2023-01-27T00:49:49.459Z,19.5
2023-01-27T00:55:19.933Z,19.5
2023-01-27T01:00:50.542Z,19.5
2023-01-27T01:06:20.976Z,19.5
2023-01-27T01:11:51.458Z,19.5
2023-01-27T01:17:20.964Z,19.4
2023-01-27T01:22:51.414Z,19.4
2023-01-27T01:28:22.012Z,19.5
2023-01-27T01:33:52.611Z,19.4
2023-01-27T01:39:23.023Z,19.4
2023-01-27T01:44:53.655Z,19.4
2023-01-27T01:50:24.176Z,19.4
2023-01-27T01:55:54.587Z,19.4
2023-01-27T02:01:25.235Z,19.4
2023-01-27T02:06:55.683Z,19.4
2023-01-27T02:12:25.151Z,19.4
2023-01-27T02:17:55.739Z,19.4
2023-01-27T02:23:26.249Z,19.4
2023-01-27T02:28:55.742Z,19.4
2023-01-27T02:34:26.315Z,19.4
2023-01-27T02:39:56.826Z,19.4
2023-01-27T02:45:27.282Z,19.4
2023-01-27T02:50:57.740Z,19.4
2023-01-27T02:56:27.269Z,19.4
2023-01-27T03:01:57.701Z,19.4
2023-01-27T03:07:27.195Z,19.4
2023-01-27T03:12:57.697Z,19.4
2023-01-27T03:18:28.149Z,19.4
2023-01-27T03:23:58.764Z,19.4
2023-01-27T03:29:29.257Z,19.4
2023-01-27T03:34:59.713Z,19.4
2023-01-27T03:40:29.214Z,19.4
2023-01-27T03:45:59.689Z,19.4
2023-01-27T03:51:30.155Z,19.4
2023-01-27T03:56:59.630Z,19.4
2023-01-27T04:02:30.175Z,19.4
2023-01-27T04:08:00.694Z,19.3
2023-01-27T04:13:31.149Z,19.4
2023-01-27T04:19:01.660Z,19.4
2023-01-27T04:24:32.233Z,19.4
2023-01-27T04:30:02.820Z,19.3
2023-01-27T04:35:38.603Z,19.4
2023-01-27T04:41:03.877Z,19.3
2023-01-27T04:46:34.366Z,19.4
2023-01-27T04:52:03.864Z,19.4
2023-01-27T04:57:34.308Z,19.4
2023-01-27T05:03:04.839Z,19.4
2023-01-27T05:08:35.399Z,19.4
2023-01-27T05:14:05.980Z,19.4
2023-01-27T05:19:35.443Z,19.4
2023-01-27T05:25:06.012Z,19.4
2023-01-27T05:30:36.482Z,19.4
2023-01-27T05:36:05.975Z,19.4
2023-01-27T05:41:36.445Z,19.4
2023-01-27T05:47:06.861Z,19.3
2023-01-27T05:52:35.626Z,19.4
2023-01-27T05:58:06.097Z,19.4
2023-01-27T06:03:36.552Z,19.4
2023-01-27T06:09:05.340Z,19.4
2023-01-27T06:14:35.967Z,19.4
2023-01-27T06:20:06.418Z,19.3
2023-01-27T06:25:36.879Z,19.4
2023-01-27T06:31:07.629Z,19.4
2023-01-27T06:36:35.225Z,19.4
2023-01-27T06:42:05.694Z,19.4
2023-01-27T06:47:36.219Z,19.3
2023-01-27T06:53:06.787Z,19.3
2023-01-27T06:58:37.366Z,19.4
2023-01-27T07:04:05.187Z,19.3
2023-01-27T07:09:51.501Z,19.4
2023-01-27T07:15:06.082Z,19.4
2023-01-27T07:20:35.605Z,19.4
2023-01-27T07:26:12.468Z,19.3
2023-01-27T07:31:35.849Z,19.4
2023-01-27T07:37:06.301Z,19.4
2023-01-27T07:42:35.779Z,19.3
2023-01-27T07:48:06.272Z,19.3
2023-01-27T07:53:35.079Z,19.3
2023-01-27T07:59:03.686Z,19.3
2023-01-27T08:04:43.392Z,19.3
2023-01-27T08:10:04.657Z,19.3
2023-01-27T08:15:35.202Z,19.3
2023-01-27T08:21:04.944Z,19.3
2023-01-27T08:26:35.564Z,19.3
2023-01-27T08:32:06.025Z,19.3
2023-01-27T08:37:36.489Z,19.3
2023-01-27T08:43:05.999Z,19.3
2023-01-27T08:48:36.462Z,19.3
2023-01-27T08:54:05.233Z,19.3
2023-01-27T08:59:34.850Z,19.3
2023-01-27T09:05:05.287Z,19.3
2023-01-27T09:10:35.895Z,19.3
2023-01-27T09:16:06.423Z,19.3
2023-01-27T09:21:34.865Z,19.3
2023-01-27T09:27:05.332Z,19.3
2023-01-27T09:32:35.827Z,19.3
2023-01-27T09:38:06.521Z,19.3
2023-01-27T09:43:37.035Z,19.3
2023-01-27T09:49:06.883Z,19.3
2023-01-27T09:54:36.251Z,19.3
2023-01-27T10:00:06.692Z,19.3
2023-01-27T10:05:37.191Z,19.3
2023-01-27T10:11:06.812Z,19.3
2023-01-27T10:16:37.480Z,19.3
2023-01-27T10:22:07.917Z,19.3
2023-01-27T10:27:38.506Z,19.3
2023-01-27T10:33:07.955Z,19.3
2023-01-27T10:38:36.864Z,19.3
2023-01-27T10:44:07.305Z,19.3
2023-01-27T10:49:37.810Z,19.3
2023-01-27T10:55:08.415Z,19.3
2023-01-27T11:06:07.447Z,19.3
2023-01-27T11:11:37.969Z,19.3
2023-01-27T11:17:08.373Z,19.3
2023-01-27T11:22:37.916Z,19.3
2023-01-27T11:28:07.547Z,19.3
2023-01-27T11:33:37.983Z,19.3
2023-01-27T11:39:08.450Z,19.3
2023-01-27T11:44:37.953Z,19.3
2023-01-27T11:50:06.707Z,19.3
2023-01-27T11:55:35.403Z,19.3
2023-01-27T12:01:06.042Z,19.3
2023-01-27T12:06:36.477Z,19.3
2023-01-27T12:12:06.985Z,19.3
2023-01-27T12:17:36.430Z,19.3
2023-01-27T12:23:06.047Z,19.3
2023-01-27T12:28:36.502Z,19.3
2023-01-27T12:34:07.135Z,19.3
2023-01-27T12:39:37.599Z,19.3
2023-01-27T12:45:05.237Z,19.3
2023-01-27T12:50:35.754Z,19.3
2023-01-27T12:56:06.183Z,19.3
2023-01-27T13:01:36.913Z,19.3
2023-01-27T13:07:07.400Z,19.3
2023-01-27T13:12:35.994Z,19.3
2023-01-27T13:18:06.501Z,19.3
2023-01-27T13:23:36.971Z,19.3
2023-01-27T13:29:07.659Z,19.3
2023-01-27T13:34:37.290Z,19.3
2023-01-27T13:40:05.816Z,19.3
2023-01-27T13:45:36.266Z,19.3
2023-01-27T13:51:06.752Z,19.3
2023-01-27T13:56:36.258Z,19.3
2023-01-27T14:02:04.959Z,19.3
2023-01-27T14:08:41.811Z,19.3
2023-01-27T14:14:12.286Z,19.3
2023-01-27T14:19:42.838Z,19.4
2023-01-27T14:25:13.318Z,19.4
2023-01-27T14:30:43.079Z,19.4
2023-01-27T14:36:13.490Z,19.3
2023-01-27T14:42:50.089Z,19.3
2023-01-27T14:48:19.593Z,19.3
2023-01-27T14:53:49.049Z,19.3
2023-01-27T14:59:18.560Z,19.4
2023-01-27T15:04:49.053Z,19.4
2023-01-27T15:10:19.493Z,19.3
2023-01-27T15:15:47.971Z,19.4
2023-01-27T15:21:17.789Z,19.3
2023-01-27T15:26:48.215Z,19.3
2023-01-27T15:32:18.747Z,19.4
2023-01-27T15:37:48.152Z,19.3
2023-01-27T15:43:17.768Z,19.3
2023-01-27T15:48:48.211Z,19.4
2023-01-27T15:54:18.699Z,19.3
2023-01-27T15:59:58.502Z,19.4
2023-01-27T16:05:18.636Z,19.3
2023-01-27T16:10:47.465Z,19.4
2023-01-27T16:16:18.182Z,19.4
2023-01-27T16:21:48.360Z,19.4
2023-01-27T16:27:18.961Z,19.4
2023-01-27T16:32:49.424Z,19.4
2023-01-27T16:38:19.308Z,19.4
2023-01-27T16:43:49.077Z,19.4
2023-01-27T16:49:19.519Z,19.4
2023-01-27T16:54:49.997Z,19.4
2023-01-27T17:00:20.662Z,19.4
2023-01-27T17:05:51.365Z,19.4
2023-01-27T17:11:21.862Z,19.4
2023-01-27T17:16:52.461Z,19.4
2023-01-27T17:22:22.950Z,19.4
2023-01-27T17:27:53.463Z,19.4
2023-01-27T17:33:23.092Z,19.4
2023-01-27T17:38:52.694Z,19.4
2023-01-27T17:44:23.204Z,19.4
2023-01-27T17:49:52.669Z,19.4
2023-01-27T17:55:23.100Z,19.4
2023-01-27T18:00:52.747Z,19.4
2023-01-27T18:06:22.410Z,19.4
2023-01-27T18:11:52.837Z,19.5
2023-01-27T18:17:23.340Z,19.6
2023-01-27T18:22:54.087Z,19.8
2023-01-27T18:28:23.807Z,19.9
2023-01-27T18:33:53.433Z,20
2023-01-27T18:39:23.903Z,20.1
2023-01-27T18:44:54.401Z,20.1
2023-01-27T18:50:24.993Z,20.1
2023-01-27T18:55:54.612Z,20.1
2023-01-27T19:01:25.063Z,20.1
2023-01-27T19:06:55.535Z,20.1
2023-01-27T19:12:25.054Z,20
2023-01-27T19:17:54.650Z,20.1
2023-01-27T19:23:24.367Z,20.2
2023-01-27T19:28:54.857Z,20.3
2023-01-27T19:34:25.414Z,20.3
2023-01-27T19:39:55.904Z,20.3
2023-01-27T19:45:25.567Z,20.3
2023-01-27T19:50:55.977Z,20.3
2023-01-27T19:56:26.463Z,20.3
2023-01-27T20:01:57.252Z,20.3
2023-01-27T20:07:26.924Z,20.3
2023-01-27T20:12:56.397Z,20.3
2023-01-27T20:18:26.913Z,20.4
2023-01-27T20:23:57.553Z,20.4
2023-01-27T20:29:27.947Z,20.4
2023-01-27T20:34:57.571Z,20.4
2023-01-27T20:40:28.116Z,20.4
2023-01-27T20:45:58.610Z,20.4
2023-01-27T20:51:29.207Z,20.4
2023-01-27T20:56:59.708Z,20.4
2023-01-27T21:02:29.495Z,20.4
2023-01-27T21:07:59.663Z,20.4
2023-01-27T21:13:29.316Z,20.5
2023-01-27T21:18:59.583Z,20.5
2023-01-27T21:24:30.125Z,20.6
2023-01-27T21:29:59.551Z,20.6
2023-01-27T21:35:30.016Z,20.5
2023-01-27T21:41:00.529Z,20.6
2023-01-27T21:46:31.158Z,20.6
2023-01-27T21:52:01.589Z,20.6
2023-01-27T21:57:31.120Z,20.6
2023-01-27T22:03:01.673Z,20.6
2023-01-27T22:08:32.253Z,20.6
2023-01-27T22:14:01.588Z,20.6
2023-01-27T22:19:32.028Z,20.6
2023-01-27T22:25:02.502Z,20.6
2023-01-27T22:30:32.048Z,20.5
2023-01-27T22:36:02.541Z,20.5
2023-01-27T22:41:32.962Z,20.5
2023-01-27T22:47:03.555Z,20.5
2023-01-27T22:52:34.035Z,20.5
2023-01-27T22:58:04.812Z,20.5
2023-01-27T23:03:35.132Z,20.4
2023-01-27T23:09:05.568Z,20.4
2023-01-27T23:14:36.195Z,20.4
2023-01-27T23:20:06.679Z,20.4
2023-01-27T23:25:37.152Z,20.4
2023-01-27T23:31:06.827Z,20.4
2023-01-27T23:36:37.135Z,20.4
2023-01-27T23:42:07.596Z,20.4
2023-01-27T23:47:38.204Z,20.4
2023-01-27T23:53:08.778Z,20.3
2023-01-27T23:58:39.359Z,20.2
